Time;durP1;ratioP1;P1;durP2;ratioP2;P2;SDS_P1;SDS_P2;PMS_P1;PMS_P2;Temp;Humidity;BMP_temperature;BMP_pressure;BME280_temperature;BME280_humidity;BME280_pressure;Samples;Min_cycle;Max_cycle;Signal;HPM_P1;HPM_P2
2021/07/05 00:00:07;;;;;;;12.58;9.48;;;;;;;16.47;71.89;99272.87;254926;1104;115195;-66
2021/07/05 00:05:31;;;;;;;12.20;8.80;;;;;;;16.24;71.11;99273.61;254662;1104;117319;-65
2021/07/05 00:10:34;;;;;;;9.20;8.23;;;;;;;16.20;71.82;99275.28;254632;1104;116956;-66
2021/07/05 00:15:38;;;;;;;10.53;9.45;;;;;;;16.18;71.95;99268.58;255022;1104;115487;-66
2021/07/05 00:20:43;;;;;;;9.28;8.33;;;;;;;16.18;72.20;99271.27;254182;1104;207260;-66
2021/07/05 00:25:47;;;;;;;9.58;8.68;;;;;;;15.97;71.43;99265.23;255021;1104;116881;-66
2021/07/05 00:30:51;;;;;;;11.30;9.37;;;;;;;15.79;71.78;99275.59;254968;1104;115544;-67
2021/07/05 00:35:54;;;;;;;9.27;8.37;;;;;;;15.71;72.17;99273.50;254782;1104;114834;-66
2021/07/05 00:40:58;;;;;;;8.88;7.93;;;;;;;15.67;72.53;99267.08;254092;1104;115943;-65
2021/07/05 00:46:04;;;;;;;10.43;9.43;;;;;;;15.60;72.22;99263.09;253948;1104;115700;-66
2021/07/05 00:51:09;;;;;;;12.43;8.95;;;;;;;15.57;72.65;99260.98;254878;1104;115373;-65
2021/07/05 00:56:12;;;;;;;12.83;7.85;;;;;;;15.66;73.06;99265.47;254184;1104;114996;-66
2021/07/05 01:01:17;;;;;;;10.10;8.98;;;;;;;15.73;72.91;99257.91;254756;1104;117940;-65
2021/07/05 01:06:21;;;;;;;9.30;7.88;;;;;;;15.58;72.76;99252.65;256062;1100;114929;-65
2021/07/05 01:11:26;;;;;;;9.93;8.88;;;;;;;15.63;73.06;99238.35;256081;1099;114424;-65
2021/07/05 01:16:31;;;;;;;11.50;9.03;;;;;;;15.61;72.34;99237.83;257072;1104;114763;-66
2021/07/05 01:21:35;;;;;;;11.45;8.08;;;;;;;15.65;72.78;99241.56;257196;1104;115481;-66
2021/07/05 01:26:39;;;;;;;9.40;8.60;;;;;;;15.60;72.50;99245.09;257153;1104;115434;-65
2021/07/05 01:31:42;;;;;;;9.70;8.58;;;;;;;15.47;72.44;99254.56;257077;1104;116098;-65
2021/07/05 01:36:46;;;;;;;12.73;7.33;;;;;;;15.46;72.85;99249.46;255872;1104;115595;-65
2021/07/05 01:41:49;;;;;;;7.85;7.23;;;;;;;15.48;73.38;99253.48;255342;1104;115599;-65
2021/07/05 01:46:53;;;;;;;8.80;7.85;;;;;;;15.55;73.73;99258.55;257077;1104;117510;-65
2021/07/05 01:51:56;;;;;;;8.40;7.60;;;;;;;15.63;73.48;99255.28;255435;1104;115255;-65
2021/07/05 01:57:00;;;;;;;10.10;7.65;;;;;;;15.51;73.02;99252.13;255758;1104;115579;-65
2021/07/05 02:02:12;;;;;;;9.00;8.05;;;;;;;15.37;73.28;99259.17;255826;1104;116297;-65
2021/07/05 02:07:17;;;;;;;9.13;8.23;;;;;;;15.34;73.21;99263.22;254427;1104;116764;-65
2021/07/05 02:12:19;;;;;;;7.90;7.18;;;;;;;15.28;72.90;99250.92;255085;1104;116715;-63
2021/07/05 02:17:22;;;;;;;9.93;8.63;;;;;;;15.11;73.07;99259.31;254706;1100;116484;-65
2021/07/05 02:22:26;;;;;;;10.27;9.23;;;;;;;14.98;73.35;99259.90;254650;1104;116265;-64
2021/07/05 02:27:30;;;;;;;8.85;7.98;;;;;;;15.01;73.73;99253.98;254231;1104;115171;-65
2021/07/05 02:32:34;;;;;;;12.68;8.20;;;;;;;14.89;73.57;99256.20;254867;1104;115146;-65
2021/07/05 02:37:38;;;;;;;8.98;8.08;;;;;;;14.96;73.89;99251.34;253988;1104;119893;-64
2021/07/05 02:42:44;;;;;;;11.90;7.55;;;;;;;14.94;73.52;99256.19;254943;1104;115813;-64
2021/07/05 02:47:55;;;;;;;8.77;7.57;;;;;;;14.97;74.07;99254.83;255243;1104;115244;-65
2021/07/05 02:53:01;;;;;;;11.50;8.35;;;;;;;14.99;73.80;99256.14;255603;1104;115574;-65
2021/07/05 02:58:05;;;;;;;11.50;8.33;;;;;;;14.87;74.06;99258.35;254942;1099;115605;-65
2021/07/05 03:03:09;;;;;;;8.80;7.83;;;;;;;14.93;74.58;99254.58;256257;1104;115753;-65
2021/07/05 03:08:13;;;;;;;15.28;8.48;;;;;;;15.09;74.23;99250.73;255787;1104;116923;-65
2021/07/05 03:13:19;;;;;;;9.60;7.50;;;;;;;15.16;74.27;99253.13;255144;1104;116720;-65
2021/07/05 03:18:23;;;;;;;10.28;7.88;;;;;;;15.10;73.78;99257.70;254797;1104;116215;-64
2021/07/05 03:23:28;;;;;;;13.60;8.93;;;;;;;15.21;73.89;99271.09;256223;1104;115990;-64
2021/07/05 03:28:32;;;;;;;9.33;8.20;;;;;;;15.51;74.70;99270.92;257382;1104;116074;-65
2021/07/05 03:33:35;;;;;;;14.45;10.23;;;;;;;15.79;74.82;99258.67;256861;1104;116426;-65
2021/07/05 03:38:38;;;;;;;9.97;8.97;;;;;;;15.98;74.60;99266.84;256407;1104;117134;-64
2021/07/05 03:43:42;;;;;;;14.28;9.83;;;;;;;16.16;74.16;99280.42;255348;1104;116448;-64
2021/07/05 03:48:45;;;;;;;19.60;9.83;;;;;;;16.48;73.97;99277.16;255437;1104;115670;-64
2021/07/05 03:53:49;;;;;;;13.43;10.30;;;;;;;16.82;74.69;99268.20;254623;1099;116666;-65
2021/07/05 03:58:52;;;;;;;16.05;10.10;;;;;;;17.21;74.66;99277.96;254138;1104;116805;-65
2021/07/05 04:03:57;;;;;;;11.10;10.00;;;;;;;17.43;74.53;99270.11;254384;1104;116281;-64
2021/07/05 04:09:03;;;;;;;12.45;9.83;;;;;;;17.36;74.13;99275.88;254436;1104;117365;-64
2021/07/05 04:14:08;;;;;;;11.83;10.48;;;;;;;17.43;74.15;99281.69;254545;1098;116328;-65
2021/07/05 04:19:11;;;;;;;15.13;11.70;;;;;;;17.73;74.98;99277.78;254633;1104;116478;-65
2021/07/05 04:24:15;;;;;;;13.45;10.80;;;;;;;18.00;74.64;99281.71;254484;1104;117206;-65
2021/07/05 04:29:19;;;;;;;13.53;10.93;;;;;;;18.28;74.70;99279.89;255096;1104;116115;-65
2021/07/05 04:34:23;;;;;;;14.70;11.08;;;;;;;18.60;73.81;99297.98;254143;1104;116866;-65
2021/07/05 04:39:27;;;;;;;20.27;11.93;;;;;;;19.80;72.77;99287.66;254984;1100;115426;-65
2021/07/05 04:44:30;;;;;;;15.88;12.05;;;;;;;22.93;69.27;99291.48;254798;1104;115520;-66
2021/07/05 04:49:34;;;;;;;22.47;11.90;;;;;;;24.07;67.74;99293.91;254335;1103;115558;-65
2021/07/05 04:54:38;;;;;;;13.40;12.10;;;;;;;24.44;66.34;99301.09;254300;1104;115011;-65
2021/07/05 04:59:41;;;;;;;16.20;13.48;;;;;;;24.24;65.32;99296.45;255199;1104;117625;-65
2021/07/05 05:04:45;;;;;;;14.15;12.60;;;;;;;24.28;65.30;99302.05;254495;1104;116308;-65
2021/07/05 05:09:49;;;;;;;16.33;12.33;;;;;;;24.40;64.44;99302.09;256707;1104;115311;-65
2021/07/05 05:14:51;;;;;;;14.05;12.58;;;;;;;25.26;64.16;99311.17;256123;1104;115653;-65
2021/07/05 05:19:54;;;;;;;13.45;11.80;;;;;;;28.53;60.16;99313.86;255809;1104;115861;-66
2021/07/05 05:24:57;;;;;;;15.75;13.08;;;;;;;31.94;56.16;99310.27;257221;1104;115310;-66
2021/07/05 05:30:01;;;;;;;11.08;10.08;;;;;;;34.77;52.56;99305.46;257330;1104;116255;-66
2021/07/05 05:35:06;;;;;;;9.85;7.48;;;;;;;37.12;48.81;99305.31;256379;1104;115784;-66
2021/07/05 05:40:09;;;;;;;9.03;5.50;;;;;;;38.66;44.07;99301.75;256824;1104;115876;-67
2021/07/05 05:45:13;;;;;;;5.95;5.00;;;;;;;39.57;41.48;99310.17;256946;1103;115396;-68
2021/07/05 05:50:17;;;;;;;5.08;4.78;;;;;;;40.50;39.74;99311.02;256769;1104;115604;-66
2021/07/05 05:55:20;;;;;;;6.13;5.63;;;;;;;41.44;38.43;99313.06;255120;1104;115253;-67
2021/07/05 06:00:25;;;;;;;5.75;5.35;;;;;;;42.64;36.17;99302.86;255652;1099;114833;-67
2021/07/05 06:05:28;;;;;;;6.60;5.75;;;;;;;43.52;34.09;99297.50;254507;1104;115635;-67
2021/07/05 06:10:32;;;;;;;4.27;3.97;;;;;;;44.24;32.44;99290.17;254081;1098;115810;-67
2021/07/05 06:15:35;;;;;;;6.30;4.70;;;;;;;44.71;31.37;99294.30;255321;1104;116007;-67
2021/07/05 06:20:38;;;;;;;4.20;3.93;;;;;;;44.23;28.96;99304.70;255201;1104;115938;-67
2021/07/05 06:25:42;;;;;;;4.60;4.30;;;;;;;44.22;29.52;99291.90;254716;1100;117041;-67
2021/07/05 06:30:46;;;;;;;4.83;4.45;;;;;;;44.79;29.22;99278.66;255295;1104;116355;-68
2021/07/05 06:35:50;;;;;;;5.83;4.60;;;;;;;45.12;28.32;99292.63;254401;1100;115879;-67
2021/07/05 06:40:56;;;;;;;4.68;4.28;;;;;;;45.25;27.45;99295.22;254564;1100;115450;-67
2021/07/05 06:45:59;;;;;;;4.15;3.80;;;;;;;45.06;26.91;99293.77;254733;1104;115576;-67
2021/07/05 06:51:03;;;;;;;4.13;3.93;;;;;;;44.94;26.49;99290.75;255202;1104;114626;-67
2021/07/05 06:56:06;;;;;;;4.70;4.30;;;;;;;45.04;26.37;99287.84;254121;1104;114722;-67
2021/07/05 07:01:09;;;;;;;3.63;3.33;;;;;;;44.31;25.34;99289.83;256534;1104;114924;-67
2021/07/05 07:06:13;;;;;;;3.93;3.68;;;;;;;43.48;26.22;99290.48;256118;1099;115474;-67
2021/07/05 07:11:16;;;;;;;7.40;5.05;;;;;;;42.97;26.63;99279.89;255201;1104;115010;-66
2021/07/05 07:16:21;;;;;;;4.38;3.98;;;;;;;43.27;26.12;99281.78;255980;1104;137304;-64
2021/07/05 07:21:25;;;;;;;6.23;3.70;;;;;;;43.52;26.14;99283.47;255794;1104;115884;-67
2021/07/05 07:26:29;;;;;;;3.48;3.28;;;;;;;42.43;27.07;99284.13;256279;1104;116376;-66
2021/07/05 07:31:32;;;;;;;3.20;2.90;;;;;;;41.79;26.44;99283.02;257289;1104;116747;-67
2021/07/05 07:36:36;;;;;;;4.50;3.20;;;;;;;39.75;27.11;99267.83;255900;1104;116044;-67
2021/07/05 07:41:39;;;;;;;3.95;3.63;;;;;;;39.04;28.35;99263.00;257078;1104;116219;-66
2021/07/05 07:46:42;;;;;;;5.90;3.85;;;;;;;38.73;28.75;99251.44;257368;1104;136052;-66
2021/07/05 07:51:45;;;;;;;3.95;3.65;;;;;;;38.13;30.04;99250.09;256255;1104;116434;-66
2021/07/05 07:56:47;;;;;;;5.93;4.03;;;;;;;37.53;30.30;99249.36;255997;1104;116065;-66
2021/07/05 08:01:50;;;;;;;3.57;3.30;;;;;;;36.30;30.82;99262.22;254404;1104;208760;-68
2021/07/05 08:06:53;;;;;;;4.78;4.48;;;;;;;35.88;31.46;99251.69;255583;1104;116681;-70
2021/07/05 08:11:56;;;;;;;4.63;4.33;;;;;;;35.70;32.18;99247.14;254557;1104;116733;-68
2021/07/05 08:16:58;;;;;;;4.80;4.50;;;;;;;35.61;33.24;99237.75;254252;1104;115796;-66
2021/07/05 08:22:01;;;;;;;;;;;;;;;35.40;33.60;99236.05;254076;1104;116905;-68
2021/07/05 08:27:04;;;;;;;4.63;4.23;;;;;;;35.18;33.66;99237.43;255132;1104;103967;-67
2021/07/05 08:32:07;;;;;;;4.30;3.85;;;;;;;34.66;34.26;99235.54;254329;1100;116337;-67
2021/07/05 08:37:10;;;;;;;;;;;;;;;34.45;33.47;99228.21;254616;1104;116579;-70
2021/07/05 08:42:15;;;;;;;5.83;4.95;;;;;;;34.21;34.41;99217.31;255418;1100;103379;-68
2021/07/05 08:47:19;;;;;;;3.98;3.68;;;;;;;33.92;34.17;99211.97;254723;1104;116941;-68
2021/07/05 08:52:22;;;;;;;3.98;3.63;;;;;;;33.55;34.25;99209.75;254453;1104;115756;-67
2021/07/05 08:57:37;;;;;;;4.18;3.78;;;;;;;33.50;34.62;99198.33;255058;1104;117143;-67
2021/07/05 09:02:41;;;;;;;5.23;4.80;;;;;;;32.70;34.61;99201.66;254532;1104;117409;-68
2021/07/05 09:08:10;;;;;;;5.27;4.87;;;;;;;32.09;35.46;99207.14;255297;1099;115303;-68
2021/07/05 09:13:21;;;;;;;4.93;4.63;;;;;;;32.33;35.41;99199.30;254251;1104;115013;-68
2021/07/05 09:18:34;;;;;;;5.45;4.98;;;;;;;32.57;35.74;99206.78;254635;1104;115492;-68
2021/07/05 09:24:08;;;;;;;8.95;3.90;;;;;;;32.62;34.71;99192.59;255052;1104;115501;-68
2021/07/05 09:29:15;;;;;;;4.10;3.63;;;;;;;32.80;34.27;99196.13;255028;1099;115930;-68
2021/07/05 09:34:30;;;;;;;3.30;3.10;;;;;;;32.26;33.62;99202.84;254254;1104;117237;-67
2021/07/05 09:39:34;;;;;;;5.18;4.68;;;;;;;31.75;34.48;99203.91;254239;1100;115683;-68
2021/07/05 09:44:44;;;;;;;5.47;3.90;;;;;;;31.95;35.22;99211.82;255678;1104;116114;-68
2021/07/05 09:49:48;;;;;;;4.23;3.83;;;;;;;32.25;34.71;99201.26;254311;1104;116615;-67
2021/07/05 09:55:10;;;;;;;4.35;3.90;;;;;;;32.51;34.29;99205.59;255636;1104;115721;-68
2021/07/05 10:00:19;;;;;;;5.13;4.73;;;;;;;32.39;35.07;99208.77;255012;1104;115748;-67
2021/07/05 10:05:21;;;;;;;5.20;4.77;;;;;;;31.71;34.16;99203.11;254930;1104;115611;-67
2021/07/05 10:10:25;;;;;;;4.55;4.25;;;;;;;31.22;34.71;99205.61;255061;1104;115587;-67
2021/07/05 10:15:30;;;;;;;9.93;5.80;;;;;;;31.28;35.92;99207.61;254431;1099;115389;-68
2021/07/05 10:20:40;;;;;;;6.70;4.43;;;;;;;31.79;35.76;99210.22;254377;1104;115492;-67
2021/07/05 10:25:46;;;;;;;4.27;3.93;;;;;;;31.68;35.30;99203.88;254981;1104;115433;-68
2021/07/05 10:30:51;;;;;;;4.45;4.15;;;;;;;31.40;35.06;99207.29;254421;1104;116090;-68
2021/07/05 10:35:56;;;;;;;4.73;4.33;;;;;;;31.47;34.90;99206.54;255141;1104;117359;-68
2021/07/05 10:41:10;;;;;;;6.95;3.75;;;;;;;31.88;34.39;99196.05;254160;1104;115328;-67
2021/07/05 10:46:38;;;;;;;4.43;4.13;;;;;;;32.06;33.95;99201.61;254830;1104;115560;-67
2021/07/05 10:51:47;;;;;;;4.20;3.93;;;;;;;32.13;32.96;99185.05;254205;1104;121324;-67
2021/07/05 10:56:54;;;;;;;3.88;3.68;;;;;;;31.72;34.12;99196.41;254579;1104;115817;-67
2021/07/05 11:02:21;;;;;;;4.73;4.43;;;;;;;31.97;33.88;99201.19;254205;1098;115710;-68
2021/07/05 11:07:42;;;;;;;3.68;3.48;;;;;;;32.01;33.88;99194.51;254014;1104;116362;-67
2021/07/05 11:13:02;;;;;;;4.80;4.40;;;;;;;32.21;33.48;99185.86;255493;1104;115829;-69
2021/07/05 11:18:07;;;;;;;4.40;4.10;;;;;;;31.67;33.32;99198.76;255519;1104;115954;-68
2021/07/05 11:23:11;;;;;;;3.80;3.50;;;;;;;31.70;34.20;99192.47;254166;1104;115369;-68
2021/07/05 11:28:20;;;;;;;4.35;4.05;;;;;;;31.90;33.22;99187.39;253976;1104;115108;-68
2021/07/05 11:33:24;;;;;;;3.73;3.43;;;;;;;32.22;33.21;99179.98;254008;1104;115384;-68
2021/07/05 11:38:43;;;;;;;4.53;4.23;;;;;;;32.34;33.41;99185.12;254006;1104;115485;-68
2021/07/05 11:43:55;;;;;;;4.25;3.90;;;;;;;32.47;32.57;99178.00;255059;1104;115295;-68
2021/07/05 11:49:04;;;;;;;4.48;4.08;;;;;;;32.59;31.93;99174.06;257376;1104;115457;-67
2021/07/05 11:54:09;;;;;;;3.70;3.43;;;;;;;32.73;31.44;99167.72;255374;1104;115997;-69
2021/07/05 11:59:24;;;;;;;5.28;3.78;;;;;;;32.86;32.45;99168.92;254071;1099;116300;-69
2021/07/05 12:04:49;;;;;;;4.50;4.10;;;;;;;32.90;32.14;99174.44;254958;1104;115444;-69
2021/07/05 12:09:56;;;;;;;4.15;3.78;;;;;;;32.73;31.91;99167.72;254690;1104;115598;-68
2021/07/05 12:15:00;;;;;;;5.23;4.43;;;;;;;32.57;32.13;99159.09;256991;1104;114838;-67
2021/07/05 12:20:03;;;;;;;;;;;;;;;32.62;32.31;99161.45;256741;1104;115774;-67
2021/07/05 12:25:10;;;;;;;4.83;4.43;;;;;;;32.20;32.39;99162.22;256492;1104;102898;-67
2021/07/05 12:30:24;;;;;;;4.33;3.98;;;;;;;32.26;32.52;99164.23;255057;1104;115648;-69
2021/07/05 12:35:29;;;;;;;5.60;4.43;;;;;;;32.26;32.32;99152.41;254502;1104;115160;-68
2021/07/05 12:40:34;;;;;;;5.45;4.48;;;;;;;32.10;32.55;99164.56;254145;1104;115402;-69
2021/07/05 12:45:43;;;;;;;4.28;3.98;;;;;;;31.86;32.34;99164.55;255251;1104;115766;-70
2021/07/05 12:50:49;;;;;;;4.03;3.83;;;;;;;31.22;31.92;99159.59;254324;1104;116040;-69
2021/07/05 12:56:03;;;;;;;5.28;4.35;;;;;;;30.89;33.21;99152.31;254253;1104;116172;-69
2021/07/05 13:01:10;;;;;;;5.15;4.78;;;;;;;30.95;33.48;99161.80;254170;1104;115413;-68
2021/07/05 13:06:14;;;;;;;5.30;4.80;;;;;;;30.65;33.77;99163.96;254064;1104;117021;-70
2021/07/05 13:11:18;;;;;;;5.25;4.68;;;;;;;30.31;34.11;99163.28;254119;1104;116208;-69
2021/07/05 13:16:26;;;;;;;4.60;4.30;;;;;;;29.88;34.31;99173.09;254131;1104;115380;-71
2021/07/05 13:21:34;;;;;;;8.30;5.10;;;;;;;29.60;34.99;99168.88;255878;1104;116474;-72
2021/07/05 13:26:38;;;;;;;4.75;4.35;;;;;;;29.47;35.25;99168.32;254572;1104;115490;-72
2021/07/05 13:31:42;;;;;;;4.23;3.93;;;;;;;29.42;35.00;99160.41;254075;1104;117975;-70
2021/07/05 13:36:53;;;;;;;6.98;6.48;;;;;;;29.47;35.48;99165.58;254373;1104;117260;-68
2021/07/05 13:42:25;;;;;;;5.35;4.88;;;;;;;29.71;35.66;99166.22;253861;1104;116760;-68
2021/07/05 13:47:28;;;;;;;6.15;5.60;;;;;;;30.04;35.70;99168.16;256855;1104;116375;-68
2021/07/05 13:52:35;;;;;;;5.25;4.85;;;;;;;30.26;35.41;99164.45;257318;1104;115161;-69
2021/07/05 13:57:48;;;;;;;5.83;5.33;;;;;;;30.42;34.99;99175.95;257083;1104;115843;-67
2021/07/05 14:02:51;;;;;;;5.30;4.90;;;;;;;30.56;34.79;99163.50;256072;1104;117139;-68
2021/07/05 14:07:54;;;;;;;4.50;4.10;;;;;;;30.52;34.84;99165.43;255556;1104;115411;-66
2021/07/05 14:12:59;;;;;;;5.23;4.83;;;;;;;30.28;35.15;99172.28;255725;1099;115787;-67
2021/07/05 14:18:06;;;;;;;5.93;5.43;;;;;;;29.89;34.96;99161.72;254367;1104;117398;-68
2021/07/05 14:23:19;;;;;;;4.70;4.40;;;;;;;29.80;34.75;99175.75;254095;1104;115958;-70
2021/07/05 14:28:26;;;;;;;5.10;4.80;;;;;;;29.69;35.42;99163.84;254682;1104;115549;-70
2021/07/05 14:33:34;;;;;;;5.95;5.45;;;;;;;29.69;35.41;99171.30;254291;1104;115278;-71
2021/07/05 14:38:42;;;;;;;6.05;5.58;;;;;;;29.66;35.58;99175.59;254750;1104;116420;-70
2021/07/05 14:43:50;;;;;;;5.80;5.33;;;;;;;29.70;35.78;99170.13;254228;1104;115702;-68
2021/07/05 14:48:56;;;;;;;6.18;5.18;;;;;;;29.72;35.68;99167.80;254607;1104;115999;-68
2021/07/05 14:54:02;;;;;;;4.93;4.55;;;;;;;29.77;35.59;99165.52;254238;1099;118726;-68
2021/07/05 14:59:08;;;;;;;6.17;5.67;;;;;;;29.80;35.81;99164.77;255035;1104;116246;-68
2021/07/05 15:04:15;;;;;;;5.00;4.70;;;;;;;29.99;35.34;99155.55;254903;1104;115588;-69
2021/07/05 15:09:21;;;;;;;9.05;5.68;;;;;;;30.01;35.97;99166.16;254035;1104;116947;-69
2021/07/05 15:14:28;;;;;;;6.18;5.60;;;;;;;30.01;35.52;99160.66;253945;1099;116279;-70
2021/07/05 15:19:36;;;;;;;5.38;4.98;;;;;;;29.93;35.33;99164.50;255996;1104;116220;-68
2021/07/05 15:24:46;;;;;;;4.37;4.07;;;;;;;29.86;35.14;99170.71;255323;1104;138004;-68
2021/07/05 15:29:51;;;;;;;5.80;5.28;;;;;;;29.62;35.66;99163.00;255181;1099;115885;-69
2021/07/05 15:34:54;;;;;;;8.10;4.40;;;;;;;29.51;35.97;99165.63;256326;1104;117326;-68
2021/07/05 15:40:00;;;;;;;6.03;5.53;;;;;;;29.51;36.47;99167.58;254261;1098;116817;-68
2021/07/05 15:45:05;;;;;;;5.50;4.07;;;;;;;29.33;36.22;99176.38;254210;1104;118264;-68
2021/07/05 15:50:16;;;;;;;6.90;5.85;;;;;;;29.13;36.69;99166.69;255974;1104;116447;-69
2021/07/05 15:55:21;;;;;;;5.87;5.17;;;;;;;28.96;36.64;99180.97;254438;1104;213692;-69
2021/07/05 16:00:25;;;;;;;7.18;5.95;;;;;;;28.70;36.70;99185.28;255880;1104;116553;-69
2021/07/05 16:05:28;;;;;;;6.98;6.38;;;;;;;28.57;37.23;99180.34;257279;1104;115597;-69
2021/07/05 16:10:32;;;;;;;5.13;4.73;;;;;;;28.22;37.14;99186.83;254225;1104;116727;-69
2021/07/05 16:15:35;;;;;;;5.03;4.73;;;;;;;28.02;37.82;99190.76;254152;1104;117787;-66
2021/07/05 16:20:38;;;;;;;6.53;6.00;;;;;;;27.80;38.02;99190.38;255235;1104;117138;-66
2021/07/05 16:25:42;;;;;;;8.85;5.35;;;;;;;27.74;39.09;99191.03;254940;1104;116118;-67
2021/07/05 16:30:46;;;;;;;6.30;5.10;;;;;;;27.66;38.54;99205.73;254295;1104;117244;-69
2021/07/05 16:35:49;;;;;;;6.37;5.87;;;;;;;27.52;39.99;99206.19;254890;1104;116644;-68
2021/07/05 16:40:53;;;;;;;5.73;4.93;;;;;;;27.39;40.60;99204.77;254380;1104;116365;-68
2021/07/05 16:45:57;;;;;;;6.13;5.60;;;;;;;27.32;41.58;99204.61;254173;1104;116017;-69
2021/07/05 16:56:13;;;;;;;6.68;5.95;;;;;;;27.11;42.46;99211.22;254545;1104;115484;-69
2021/07/05 17:01:17;;;;;;;5.80;5.28;;;;;;;27.01;43.35;99206.30;255239;1098;116532;-66
2021/07/05 17:06:20;;;;;;;6.67;6.17;;;;;;;27.04;44.30;99213.79;255300;1104;115508;-66
2021/07/05 17:11:22;;;;;;;7.85;7.05;;;;;;;27.02;44.67;99224.29;254094;1104;115605;-66
2021/07/05 17:16:25;;;;;;;6.55;5.55;;;;;;;26.91;44.27;99220.48;254249;1104;115126;-67
2021/07/05 17:21:28;;;;;;;7.40;6.60;;;;;;;26.82;44.79;99228.10;254201;1104;115516;-69
2021/07/05 17:26:32;;;;;;;6.40;5.80;;;;;;;26.67;45.44;99235.16;254376;1104;115913;-67
2021/07/05 17:31:40;;;;;;;7.43;6.75;;;;;;;26.49;46.15;99244.88;254252;1104;115471;-67
2021/07/05 17:36:45;;;;;;;7.75;7.00;;;;;;;26.31;46.36;99238.94;255477;1098;115639;-68
2021/07/05 17:41:50;;;;;;;9.98;7.48;;;;;;;26.13;46.71;99240.39;254220;1100;116158;-68
2021/07/05 17:46:54;;;;;;;6.38;5.88;;;;;;;25.94;47.25;99246.53;256898;1104;136885;-67
2021/07/05 17:51:57;;;;;;;7.40;6.70;;;;;;;25.81;48.15;99258.64;257133;1104;115939;-67
2021/07/05 17:57:01;;;;;;;12.75;6.95;;;;;;;25.70;48.34;99261.05;257152;1104;117165;-66
2021/07/05 18:02:05;;;;;;;8.55;7.45;;;;;;;25.60;48.57;99274.39;257110;1104;114994;-67
2021/07/05 18:07:09;;;;;;;6.93;6.33;;;;;;;25.46;48.72;99278.27;257172;1104;116283;-70
2021/07/05 18:12:12;;;;;;;7.83;7.13;;;;;;;25.35;48.30;99284.56;256507;1104;116093;-70
2021/07/05 18:17:16;;;;;;;8.08;7.30;;;;;;;25.31;48.03;99289.91;255341;1104;115789;-70
2021/07/05 18:22:20;;;;;;;7.30;6.68;;;;;;;25.23;48.15;99287.30;254134;1104;115671;-68
2021/07/05 18:27:23;;;;;;;7.20;6.30;;;;;;;25.13;48.96;99288.55;254854;1104;115789;-66
2021/07/05 18:32:28;;;;;;;9.43;6.95;;;;;;;25.01;48.63;99302.20;255735;1104;116232;-66
2021/07/05 18:37:32;;;;;;;7.20;5.85;;;;;;;24.87;49.26;99302.50;254952;1104;115741;-66
2021/07/05 18:42:35;;;;;;;8.13;7.08;;;;;;;24.69;49.23;99307.38;254452;1104;116633;-66
2021/07/05 18:47:39;;;;;;;7.77;6.60;;;;;;;24.54;49.91;99318.13;255522;1104;116997;-66
2021/07/05 18:52:43;;;;;;;7.30;6.63;;;;;;;24.40;49.76;99327.41;255579;1100;116851;-66
2021/07/05 18:57:47;;;;;;;7.58;6.88;;;;;;;24.25;50.59;99325.30;254815;1104;116570;-66
2021/07/05 19:02:51;;;;;;;9.10;6.50;;;;;;;24.10;50.77;99334.08;254552;1104;116195;-66
2021/07/05 19:07:54;;;;;;;8.10;7.05;;;;;;;23.93;51.08;99339.66;254402;1104;115626;-67
2021/07/05 19:12:57;;;;;;;8.70;6.80;;;;;;;23.74;51.76;99349.09;255259;1104;116011;-67
2021/07/05 19:18:01;;;;;;;7.05;6.43;;;;;;;23.51;52.02;99355.95;254411;1104;115930;-67
2021/07/05 19:23:04;;;;;;;7.98;7.28;;;;;;;23.32;52.76;99350.13;254715;1104;115982;-68
2021/07/05 19:28:08;;;;;;;7.73;7.03;;;;;;;23.12;53.15;99360.63;254180;1099;116126;-67
2021/07/05 19:33:12;;;;;;;12.35;5.70;;;;;;;22.93;53.50;99362.16;255824;1104;115627;-67
2021/07/05 19:38:15;;;;;;;7.75;7.05;;;;;;;22.74;54.26;99371.44;254746;1104;115832;-67
2021/07/05 19:43:20;;;;;;;7.63;6.60;;;;;;;22.57;54.62;99365.26;254706;1104;115372;-67
2021/07/05 19:48:24;;;;;;;8.83;6.33;;;;;;;22.49;55.09;99375.02;255034;1104;115591;-67
2021/07/05 19:53:27;;;;;;;16.53;8.13;;;;;;;22.42;55.75;99375.49;255164;1104;115966;-67
2021/07/05 19:58:31;;;;;;;8.40;7.60;;;;;;;22.35;56.66;99379.81;256800;1104;115452;-67
2021/07/05 20:03:34;;;;;;;6.83;6.18;;;;;;;22.24;56.35;99389.42;257125;1104;115646;-68
2021/07/05 20:08:40;;;;;;;8.33;7.53;;;;;;;22.18;56.81;99392.29;257309;1104;115032;-67
2021/07/05 20:13:44;;;;;;;8.00;7.20;;;;;;;22.11;57.06;99391.16;254812;1100;115722;-68
2021/07/05 20:18:50;;;;;;;8.25;7.45;;;;;;;22.02;57.35;99402.01;255142;1104;115678;-66
2021/07/05 20:23:53;;;;;;;8.28;7.65;;;;;;;21.91;57.61;99402.63;254560;1104;115394;-68
2021/07/05 20:28:59;;;;;;;8.78;7.88;;;;;;;21.81;57.79;99409.95;254438;1104;115313;-67
2021/07/05 20:34:02;;;;;;;8.98;8.08;;;;;;;21.69;57.92;99412.50;255215;1099;115191;-67
2021/07/05 20:39:09;;;;;;;8.45;7.78;;;;;;;21.56;58.46;99410.70;254611;1104;116600;-66
2021/07/05 20:44:15;;;;;;;8.13;7.10;;;;;;;21.43;58.45;99403.46;255275;1104;117711;-67
2021/07/05 20:49:18;;;;;;;8.78;7.95;;;;;;;21.27;58.82;99407.73;254432;1104;116838;-68
2021/07/05 20:54:22;;;;;;;10.50;7.67;;;;;;;21.16;59.32;99421.52;255003;1104;115724;-68
2021/07/05 20:59:26;;;;;;;8.00;7.30;;;;;;;21.10;59.82;99422.76;254362;1104;115532;-68
2021/07/05 21:04:30;;;;;;;9.63;8.83;;;;;;;21.00;59.73;99423.05;254785;1104;116341;-69
2021/07/05 21:09:33;;;;;;;10.40;9.48;;;;;;;20.91;60.49;99430.32;254730;1104;115474;-68
2021/07/05 21:14:38;;;;;;;9.63;8.43;;;;;;;20.77;60.46;99438.54;254424;1104;115935;-67
2021/07/05 21:19:41;;;;;;;7.97;7.27;;;;;;;20.62;60.72;99435.39;255223;1104;115582;-68
2021/07/05 21:24:45;;;;;;;10.70;9.33;;;;;;;20.60;61.35;99437.61;254198;1104;117061;-68
2021/07/05 21:29:48;;;;;;;9.80;8.75;;;;;;;20.58;61.45;99434.41;255523;1104;117362;-68
2021/07/05 21:34:54;;;;;;;9.00;8.28;;;;;;;20.57;62.25;99441.73;254674;1104;116383;-68
2021/07/05 21:39:58;;;;;;;13.88;9.48;;;;;;;20.56;62.33;99434.71;254592;1104;116895;-66
2021/07/05 21:45:01;;;;;;;9.60;8.33;;;;;;;20.54;62.59;99441.54;255679;1104;116147;-67
2021/07/05 21:50:12;;;;;;;11.05;10.10;;;;;;;20.47;62.65;99431.16;254352;1104;116312;-67
2021/07/05 21:55:16;;;;;;;8.50;7.70;;;;;;;20.36;62.66;99427.85;255914;1104;117543;-67
2021/07/05 22:00:31;;;;;;;20.70;11.70;;;;;;;20.33;63.16;99444.70;255311;1104;115984;-67
2021/07/05 22:05:35;;;;;;;14.75;10.50;;;;;;;20.35;63.01;99449.81;257144;1104;116053;-68
2021/07/05 22:10:38;;;;;;;11.53;10.20;;;;;;;20.38;63.48;99444.63;256384;1098;115529;-68
2021/07/05 22:15:41;;;;;;;11.23;9.93;;;;;;;20.38;63.37;99450.03;255777;1104;115681;-67
2021/07/05 22:20:44;;;;;;;12.18;10.38;;;;;;;20.39;63.35;99456.25;255557;1104;115312;-68
2021/07/05 22:25:48;;;;;;;12.65;11.35;;;;;;;20.37;63.11;99456.55;254197;1100;115644;-67
2021/07/05 22:30:52;;;;;;;15.30;11.47;;;;;;;20.33;63.24;99460.94;255754;1104;115753;-67
2021/07/05 22:35:55;;;;;;;17.20;11.13;;;;;;;20.25;63.34;99455.45;254215;1104;116290;-66
2021/07/05 22:40:59;;;;;;;13.73;12.38;;;;;;;20.15;63.39;99459.20;254644;1104;116085;-66
2021/07/05 22:46:02;;;;;;;11.53;10.43;;;;;;;20.03;63.70;99475.95;255001;1104;116724;-68
2021/07/05 22:51:05;;;;;;;15.88;11.50;;;;;;;19.94;63.99;99472.34;255608;1104;116440;-68
2021/07/05 22:56:09;;;;;;;14.25;11.68;;;;;;;19.86;64.09;99478.49;254674;1100;115751;-68
2021/07/05 23:01:13;;;;;;;13.18;11.13;;;;;;;19.79;64.48;99472.68;254551;1104;115561;-68
2021/07/05 23:06:16;;;;;;;13.48;11.15;;;;;;;19.69;64.35;99479.09;254838;1104;116231;-66
2021/07/05 23:11:19;;;;;;;11.70;10.20;;;;;;;19.49;64.07;99476.75;255220;1103;116192;-67
2021/07/05 23:16:23;;;;;;;13.78;10.93;;;;;;;19.33;64.53;99484.34;255121;1104;116285;-67
2021/07/05 23:21:27;;;;;;;12.13;10.93;;;;;;;19.14;64.61;99487.12;255262;1104;115867;-67